createdAt,value
2019-03-20T00:01:48.616Z,250.43
2019-03-20T00:04:32.002Z,227.17
2019-03-20T00:07:14.809Z,202.47
2019-03-20T00:09:55.990Z,377.93
2019-03-20T00:12:37.807Z,253.87
2019-03-20T00:15:22.136Z,225.47
2019-03-20T00:18:22.710Z,247.73
2019-03-20T00:21:03.242Z,212.63
2019-03-20T00:23:43.886Z,215.43
2019-03-20T00:26:28.964Z,197.03
2019-03-20T00:29:13.461Z,180.67
2019-03-20T00:31:55.012Z,191.73
2019-03-20T00:34:38.559Z,172.17
2019-03-20T00:37:33.222Z,163.87
2019-03-20T00:40:12.261Z,169.60
2019-03-20T00:42:57.300Z,175.57
2019-03-20T00:45:39.586Z,149.60
2019-03-20T00:48:22.264Z,155.27
2019-03-20T00:51:01.471Z,159.33
2019-03-20T00:53:46.274Z,164.30
2019-03-20T00:56:32.616Z,169.00
2019-03-20T00:59:16.052Z,156.20
2019-03-20T01:02:18.177Z,154.70
2019-03-20T01:05:11.837Z,149.53
2019-03-20T01:08:17.881Z,154.57
2019-03-20T01:11:00.742Z,150.97
2019-03-20T01:16:43.447Z,182.07
2019-03-20T01:19:24.799Z,167.03
2019-03-20T01:22:05.298Z,179.35
2019-03-20T01:24:52.005Z,153.93
2019-03-20T01:27:32.139Z,191.75
2019-03-20T01:30:32.868Z,169.87
2019-03-20T01:33:15.299Z,154.10
2019-03-20T01:36:00.052Z,153.33
2019-03-20T01:38:51.317Z,170.17
2019-03-20T01:41:38.334Z,151.53
2019-03-20T01:44:16.853Z,168.17
2019-03-20T01:46:57.275Z,161.83
2019-03-20T01:49:40.170Z,139.33
2019-03-20T01:52:18.815Z,126.07
2019-03-20T01:55:01.514Z,117.97
2019-03-20T01:57:44.704Z,139.80
2019-03-20T02:00:29.183Z,142.73
2019-03-20T02:03:09.431Z,125.70
2019-03-20T02:05:49.378Z,133.63
2019-03-20T02:08:38.009Z,133.55
2019-03-20T02:11:20.531Z,133.47
2019-03-20T02:14:03.352Z,161.97
2019-03-20T02:16:47.203Z,148.97
2019-03-20T02:19:27.646Z,147.50
2019-03-20T02:22:10.928Z,157.00
2019-03-20T02:24:55.661Z,156.47
2019-03-20T02:27:40.539Z,181.60
2019-03-20T02:30:27.574Z,168.20
2019-03-20T02:33:09.755Z,158.93
2019-03-20T02:35:52.342Z,176.87
2019-03-20T02:38:36.719Z,176.77
2019-03-20T02:41:24.434Z,168.43
2019-03-20T02:44:08.094Z,209.30
2019-03-20T02:46:47.884Z,195.13
2019-03-20T02:49:29.162Z,234.80
2019-03-20T02:52:13.128Z,192.20
2019-03-20T02:54:57.738Z,181.77
2019-03-20T02:57:57.806Z,176.37
2019-03-20T03:03:41.162Z,172.27
2019-03-20T03:06:23.324Z,158.67
2019-03-20T03:12:05.895Z,174.55
2019-03-20T03:14:47.086Z,175.37
2019-03-20T03:17:34.596Z,169.27
2019-03-20T03:20:17.036Z,199.33
2019-03-20T03:23:04.126Z,174.67
2019-03-20T03:25:45.305Z,161.93
2019-03-20T03:28:27.893Z,148.73
2019-03-20T03:31:08.730Z,149.67
2019-03-20T03:33:48.319Z,158.37
2019-03-20T03:36:27.315Z,152.00
2019-03-20T03:39:11.097Z,159.32
2019-03-20T03:41:54.650Z,160.77
2019-03-20T03:44:38.575Z,167.83
2019-03-20T03:47:20.150Z,158.37
2019-03-20T03:49:59.794Z,417.70
2019-03-20T03:52:41.983Z,197.63
2019-03-20T03:55:20.675Z,195.43
2019-03-20T03:58:03.985Z,180.73
2019-03-20T04:00:46.709Z,215.10
2019-03-20T04:03:31.340Z,216.33
2019-03-20T04:06:34.369Z,183.40
2019-03-20T04:09:09.122Z,174.20
2019-03-20T04:11:52.796Z,191.50
2019-03-20T04:14:37.309Z,176.77
2019-03-20T04:17:35.439Z,208.03
2019-03-20T04:20:21.338Z,238.40
2019-03-20T04:23:14.865Z,191.23
2019-03-20T04:26:03.434Z,261.70
2019-03-20T04:28:55.258Z,221.70
2019-03-20T04:31:41.234Z,177.03
2019-03-20T04:34:26.584Z,202.37
2019-03-20T04:37:58.578Z,167.23
2019-03-20T04:40:47.274Z,166.77
2019-03-20T04:43:32.107Z,147.67
2019-03-20T04:46:21.204Z,160.73
2019-03-20T04:49:06.987Z,189.53
2019-03-20T04:52:06.578Z,193.47
2019-03-20T04:55:01.317Z,139.07
2019-03-20T04:57:59.883Z,128.50
2019-03-20T05:00:57.936Z,196.87
2019-03-20T05:04:06.472Z,127.80
2019-03-20T05:07:05.115Z,148.68
2019-03-20T05:10:02.029Z,148.73
2019-03-20T05:12:55.272Z,150.47
2019-03-20T05:15:46.192Z,126.97
2019-03-20T05:18:37.234Z,123.53
2019-03-20T05:21:28.822Z,125.90
2019-03-20T05:24:17.026Z,133.63
2019-03-20T05:26:58.613Z,159.67
2019-03-20T05:29:44.225Z,127.40
2019-03-20T05:32:29.370Z,127.77
2019-03-20T05:35:18.110Z,141.50
2019-03-20T05:38:19.360Z,119.70
2019-03-20T05:41:22.746Z,121.33
2019-03-20T05:44:06.453Z,117.77
2019-03-20T05:46:57.728Z,131.87
2019-03-20T05:49:45.169Z,117.50
2019-03-20T05:52:31.427Z,115.40
2019-03-20T05:55:17.128Z,111.07
2019-03-20T05:58:14.459Z,108.10
2019-03-20T06:01:06.089Z,107.67
2019-03-20T06:04:07.572Z,115.80
2019-03-20T06:06:53.621Z,107.30
2019-03-20T06:09:42.820Z,109.53
2019-03-20T06:12:36.896Z,131.43
2019-03-20T06:15:31.214Z,116.30
2019-03-20T06:18:33.141Z,96.57
2019-03-20T06:21:19.443Z,101.70
2019-03-20T06:24:23.414Z,102.67
2019-03-20T06:27:20.552Z,120.63
2019-03-20T06:30:11.073Z,169.80
2019-03-20T06:33:12.919Z,132.33
2019-03-20T06:36:03.421Z,121.77
2019-03-20T06:38:55.200Z,104.07
2019-03-20T06:41:39.847Z,112.37
2019-03-20T06:44:40.970Z,106.53
2019-03-20T06:47:21.892Z,109.77
2019-03-20T06:50:11.490Z,115.73
2019-03-20T06:52:57.287Z,112.73
2019-03-20T06:55:44.839Z,115.00
2019-03-20T06:58:31.140Z,115.73
2019-03-20T07:01:35.286Z,101.83
2019-03-20T07:08:04.532Z,105.40
2019-03-20T07:11:30.054Z,102.50
2019-03-20T07:14:25.729Z,100.93
2019-03-20T07:17:12.514Z,100.03
2019-03-20T07:19:57.159Z,91.67
2019-03-20T07:22:59.271Z,112.77
2019-03-20T07:25:52.004Z,119.47
2019-03-20T07:28:39.765Z,108.73
2019-03-20T07:31:24.091Z,101.40
2019-03-20T07:34:05.662Z,103.00
2019-03-20T07:36:49.307Z,94.90
2019-03-20T07:39:28.704Z,101.70
2019-03-20T07:42:21.655Z,91.97
2019-03-20T07:45:08.548Z,92.00
2019-03-20T07:47:55.171Z,90.30
2019-03-20T07:50:40.635Z,87.27
2019-03-20T07:53:27.906Z,80.43
2019-03-20T07:56:19.417Z,88.17
2019-03-20T07:59:15.470Z,81.67
2019-03-20T08:02:00.191Z,105.50
2019-03-20T08:04:47.726Z,79.10
2019-03-20T08:07:39.754Z,72.63
2019-03-20T08:10:35.108Z,68.93
2019-03-20T08:13:42.173Z,69.30
2019-03-20T08:16:32.744Z,67.63
2019-03-20T08:19:25.920Z,67.17
2019-03-20T08:22:13.234Z,71.43
2019-03-20T08:25:05.350Z,66.57
2019-03-20T08:27:43.702Z,60.13
2019-03-20T08:33:25.965Z,76.77
2019-03-20T08:36:06.957Z,64.47
2019-03-20T08:38:48.164Z,69.97
2019-03-20T08:41:36.994Z,69.40
2019-03-20T08:44:18.987Z,63.57
2019-03-20T08:47:06.901Z,70.23
2019-03-20T08:49:51.751Z,61.57
2019-03-20T08:52:39.478Z,59.87
2019-03-20T08:55:35.199Z,69.72
2019-03-20T08:58:14.974Z,60.10
2019-03-20T09:01:03.264Z,68.10
2019-03-20T09:03:47.755Z,66.47
2019-03-20T09:06:46.407Z,72.33
2019-03-20T09:09:25.981Z,60.60
2019-03-20T09:12:12.137Z,70.70
2019-03-20T09:14:54.695Z,63.63
2019-03-20T09:17:38.088Z,67.57
2019-03-20T09:20:20.519Z,59.37
2019-03-20T09:23:04.607Z,57.37
2019-03-20T09:25:44.053Z,54.90
2019-03-20T09:28:33.064Z,60.40
2019-03-20T09:31:32.497Z,62.50
2019-03-20T09:34:20.875Z,50.33
2019-03-20T09:37:07.233Z,58.97
2019-03-20T09:39:51.277Z,53.23
2019-03-20T09:42:39.415Z,52.87
2019-03-20T09:45:31.099Z,53.13
2019-03-20T09:48:26.479Z,56.30
2019-03-20T09:51:31.525Z,58.83
2019-03-20T09:54:12.760Z,53.53
2019-03-20T09:56:54.724Z,53.87
2019-03-20T09:59:39.084Z,58.43
2019-03-20T10:02:18.534Z,60.13
2019-03-20T10:05:07.233Z,62.30
2019-03-20T10:07:54.789Z,60.60
2019-03-20T10:10:48.888Z,57.83
2019-03-20T10:13:28.305Z,60.17
2019-03-20T10:16:13.925Z,66.03
2019-03-20T10:19:07.555Z,69.03
2019-03-20T10:25:05.220Z,76.93
2019-03-20T10:27:46.976Z,75.13
2019-03-20T10:30:46.555Z,77.93
2019-03-20T10:33:32.409Z,85.15
2019-03-20T10:36:45.674Z,88.17
2019-03-20T10:39:39.567Z,130.17
2019-03-20T10:42:28.935Z,110.43
2019-03-20T10:45:23.367Z,104.83
2019-03-20T10:48:21.304Z,96.93
2019-03-20T10:51:08.373Z,103.30
2019-03-20T10:53:58.733Z,100.63
2019-03-20T10:56:44.938Z,116.23
2019-03-20T10:59:37.090Z,123.83
2019-03-20T11:02:22.773Z,136.47
2019-03-20T11:05:08.744Z,128.97
2019-03-20T11:07:58.026Z,121.17
2019-03-20T11:10:44.124Z,121.30
2019-03-20T11:13:26.648Z,185.73
2019-03-20T11:16:19.914Z,156.07
2019-03-20T11:19:14.977Z,130.63
2019-03-20T11:21:53.474Z,122.30
2019-03-20T11:24:53.451Z,106.33
2019-03-20T11:27:44.617Z,129.30
2019-03-20T11:30:59.925Z,171.93
2019-03-20T11:33:56.849Z,546.08
2019-03-20T11:36:48.339Z,438.72
2019-03-20T11:39:34.352Z,298.17
2019-03-20T11:42:32.147Z,155.47
2019-03-20T11:45:17.390Z,138.97
2019-03-20T11:48:06.329Z,121.67
2019-03-20T11:51:01.925Z,84.30
2019-03-20T11:53:59.668Z,90.03
2019-03-20T11:56:42.281Z,106.63
2019-03-20T11:59:30.245Z,83.20
2019-03-20T12:02:27.463Z,75.60
2019-03-20T12:05:08.441Z,101.30
2019-03-20T12:08:14.122Z,92.80
2019-03-20T12:11:03.512Z,121.33
2019-03-20T12:13:55.393Z,104.17
2019-03-20T12:17:04.840Z,152.90
2019-03-20T12:19:59.929Z,153.00
2019-03-20T12:22:55.680Z,580.97
2019-03-20T12:25:58.081Z,553.33
2019-03-20T12:28:45.918Z,607.93
2019-03-20T12:31:50.709Z,364.77
2019-03-20T12:34:43.603Z,218.40
2019-03-20T12:37:31.289Z,172.10
2019-03-20T12:40:37.783Z,215.93
2019-03-20T12:43:31.851Z,172.27
2019-03-20T12:46:41.325Z,147.03
2019-03-20T12:49:20.682Z,133.30
2019-03-20T12:52:32.936Z,100.90
2019-03-20T12:55:25.905Z,154.80
2019-03-20T12:58:25.350Z,205.93
2019-03-20T13:01:34.163Z,117.10
2019-03-20T13:04:36.777Z,111.17
2019-03-20T13:07:29.020Z,116.97
2019-03-20T13:10:17.331Z,108.53
2019-03-20T13:13:28.045Z,126.00
2019-03-20T13:16:13.957Z,116.83
2019-03-20T13:19:08.474Z,93.47
2019-03-20T13:22:14.721Z,75.53
2019-03-20T13:25:27.822Z,70.13
2019-03-20T13:28:40.739Z,92.40
2019-03-20T13:31:40.624Z,76.73
2019-03-20T13:34:50.918Z,62.57
2019-03-20T13:37:45.305Z,66.77
2019-03-20T13:40:32.568Z,69.87
2019-03-20T13:43:34.190Z,67.70
2019-03-20T13:46:39.355Z,63.53
2019-03-20T13:49:44.819Z,135.03
2019-03-20T13:52:43.889Z,135.37
2019-03-20T13:55:47.060Z,87.07
2019-03-20T13:58:58.444Z,56.90
2019-03-20T14:02:01.541Z,65.97
2019-03-20T14:04:57.879Z,58.20
2019-03-20T14:08:00.378Z,55.37
2019-03-20T14:11:07.091Z,70.67
2019-03-20T14:14:15.746Z,71.27
2019-03-20T14:17:29.502Z,65.13
2019-03-20T14:20:19.741Z,64.23
2019-03-20T14:23:30.602Z,59.57
2019-03-20T14:26:21.359Z,72.03
2019-03-20T14:32:46.575Z,66.77
2019-03-20T14:36:04.082Z,69.23
2019-03-20T14:39:07.177Z,60.63
2019-03-20T14:42:17.676Z,67.93
2019-03-20T14:45:10.650Z,58.60
2019-03-20T14:48:14.877Z,64.53
2019-03-20T14:51:23.684Z,62.50
2019-03-20T14:54:27.819Z,61.50
2019-03-20T14:57:39.665Z,62.90
2019-03-20T15:00:42.000Z,66.00
2019-03-20T15:03:48.765Z,71.63
2019-03-20T15:06:58.738Z,65.17
2019-03-20T15:09:59.438Z,71.02
2019-03-20T15:13:02.215Z,66.83
2019-03-20T15:16:14.851Z,64.57
2019-03-20T15:19:23.704Z,65.00
2019-03-20T15:22:35.826Z,72.87
2019-03-20T15:25:41.034Z,80.83
2019-03-20T15:28:44.141Z,92.93
2019-03-20T15:32:00.551Z,76.83
2019-03-20T15:35:21.839Z,73.53
2019-03-20T15:38:20.726Z,74.00
2019-03-20T15:41:08.247Z,78.43
2019-03-20T15:44:07.925Z,85.22
2019-03-20T15:46:51.417Z,98.13
2019-03-20T15:50:01.901Z,90.97
2019-03-20T15:52:59.888Z,84.73
2019-03-20T15:55:56.902Z,87.40
2019-03-20T15:58:43.219Z,93.33
2019-03-20T16:05:10.288Z,97.57
2019-03-20T16:08:09.211Z,102.57
2019-03-20T16:10:54.209Z,106.20
2019-03-20T16:14:02.719Z,102.93
2019-03-20T16:16:47.304Z,109.85
2019-03-20T16:19:31.747Z,102.87
2019-03-20T16:22:17.003Z,104.77
2019-03-20T16:25:18.268Z,108.27
2019-03-20T16:28:07.126Z,105.77
2019-03-20T16:30:54.335Z,113.13
2019-03-20T16:34:03.600Z,282.27
2019-03-20T16:37:05.434Z,285.83
2019-03-20T16:39:59.866Z,168.87
2019-03-20T16:42:43.658Z,117.00
2019-03-20T16:45:48.239Z,121.23
2019-03-20T16:48:28.499Z,124.30
2019-03-20T16:51:20.854Z,117.70
2019-03-20T16:54:07.817Z,105.23
2019-03-20T16:57:12.779Z,112.87
2019-03-20T16:59:54.889Z,117.47
2019-03-20T17:02:37.567Z,112.80
2019-03-20T17:05:20.476Z,109.83
2019-03-20T17:08:04.397Z,113.93
2019-03-20T17:10:50.504Z,108.70
2019-03-20T17:13:36.533Z,106.27
2019-03-20T17:16:15.788Z,116.63
2019-03-20T17:19:00.574Z,122.87
2019-03-20T17:21:54.111Z,115.37
2019-03-20T17:24:47.184Z,135.93
2019-03-20T17:27:31.398Z,139.70
2019-03-20T17:30:15.980Z,125.03
2019-03-20T17:32:56.751Z,120.10
2019-03-20T17:35:39.360Z,116.97
2019-03-20T17:38:20.001Z,121.97
2019-03-20T17:41:06.209Z,112.93
2019-03-20T17:43:50.872Z,133.30
2019-03-20T17:46:28.366Z,119.57
2019-03-20T17:49:11.494Z,125.30
2019-03-20T17:51:54.549Z,125.97
2019-03-20T17:54:39.954Z,122.90
2019-03-20T17:57:24.461Z,121.10
2019-03-20T18:00:02.378Z,135.18
2019-03-20T18:02:48.672Z,126.20
2019-03-20T18:05:33.413Z,118.33
2019-03-20T18:08:16.071Z,123.10
2019-03-20T18:11:14.612Z,115.63
2019-03-20T18:13:51.626Z,126.73
2019-03-20T18:16:32.700Z,124.90
2019-03-20T18:19:13.759Z,118.20
2019-03-20T18:22:00.547Z,125.93
2019-03-20T18:24:41.969Z,129.80
2019-03-20T18:27:29.874Z,122.00
2019-03-20T18:30:17.051Z,130.87
2019-03-20T18:32:59.280Z,120.43
2019-03-20T18:35:40.573Z,129.55
2019-03-20T18:38:19.663Z,126.10
2019-03-20T18:41:08.280Z,113.10
2019-03-20T18:43:52.420Z,118.13
2019-03-20T18:46:32.164Z,112.10
2019-03-20T18:49:14.602Z,122.27
2019-03-20T18:51:57.686Z,124.90
2019-03-20T18:54:38.903Z,133.20
2019-03-20T18:57:19.825Z,137.87
2019-03-20T18:59:58.150Z,135.30
2019-03-20T19:02:40.419Z,132.80
2019-03-20T19:05:41.612Z,124.33
2019-03-20T19:08:23.260Z,117.50
2019-03-20T19:11:09.673Z,115.30
2019-03-20T19:13:49.525Z,111.70
2019-03-20T19:16:28.757Z,112.00
2019-03-20T19:19:09.379Z,117.97
2019-03-20T19:21:50.321Z,123.20
2019-03-20T19:24:30.330Z,137.93
2019-03-20T19:27:10.420Z,121.67
2019-03-20T19:29:51.329Z,138.00
2019-03-20T19:32:35.797Z,115.57
2019-03-20T19:35:19.918Z,126.43
2019-03-20T19:38:03.585Z,137.47
2019-03-20T19:40:45.300Z,118.10
2019-03-20T19:43:28.110Z,119.37
2019-03-20T19:46:09.444Z,107.23
2019-03-20T19:48:53.387Z,127.62
2019-03-20T19:51:35.418Z,124.07
2019-03-20T19:54:18.445Z,126.67
2019-03-20T19:56:58.486Z,124.80
2019-03-20T19:59:40.302Z,137.10
2019-03-20T20:02:19.711Z,136.73
2019-03-20T20:05:01.731Z,135.20
2019-03-20T20:07:46.178Z,139.53
2019-03-20T20:10:26.375Z,141.90
2019-03-20T20:13:09.863Z,138.83
2019-03-20T20:16:00.459Z,131.93
2019-03-20T20:18:40.992Z,154.17
2019-03-20T20:21:22.424Z,140.43
2019-03-20T20:24:05.132Z,139.93
2019-03-20T20:26:47.288Z,154.85
2019-03-20T20:29:29.014Z,141.43
2019-03-20T20:32:10.164Z,138.60
2019-03-20T20:34:52.760Z,128.33
2019-03-20T20:37:35.334Z,145.07
2019-03-20T20:40:16.848Z,138.17
2019-03-20T20:43:02.658Z,136.67
2019-03-20T20:45:43.737Z,133.47
2019-03-20T20:48:28.698Z,132.27
2019-03-20T20:51:10.339Z,143.83
2019-03-20T20:53:53.782Z,142.13
2019-03-20T20:56:36.913Z,134.77
2019-03-20T20:59:18.125Z,128.37
2019-03-20T21:02:03.317Z,139.23
2019-03-20T21:04:44.092Z,158.12
2019-03-20T21:07:26.587Z,136.27
2019-03-20T21:10:07.046Z,125.60
2019-03-20T21:12:56.208Z,134.53
2019-03-20T21:15:52.414Z,135.57
2019-03-20T21:19:10.306Z,122.23
2019-03-20T21:22:50.460Z,134.57
2019-03-20T21:25:35.334Z,130.00
2019-03-20T21:29:05.485Z,132.03
2019-03-20T21:32:00.764Z,140.77
2019-03-20T21:35:40.026Z,145.47
2019-03-20T21:38:15.180Z,141.23
2019-03-20T21:41:13.770Z,147.17
2019-03-20T21:44:23.220Z,131.77
2019-03-20T21:47:43.355Z,126.23
2019-03-20T21:51:26.207Z,128.30
2019-03-20T21:54:52.907Z,90.17
2019-03-20T21:57:52.293Z,96.27
2019-03-20T22:01:03.946Z,87.67
2019-03-20T22:03:46.772Z,79.60
2019-03-20T22:06:58.108Z,74.50
2019-03-20T22:10:02.603Z,81.07
2019-03-20T22:13:21.250Z,82.02
2019-03-20T22:16:47.939Z,71.97
2019-03-20T22:19:58.842Z,84.75
2019-03-20T22:23:19.324Z,65.17
2019-03-20T22:26:25.889Z,70.20
2019-03-20T22:29:34.198Z,75.57
2019-03-20T22:32:58.405Z,62.20
2019-03-20T22:36:17.979Z,72.13
2019-03-20T22:39:39.462Z,54.13
2019-03-20T22:42:52.354Z,67.60
2019-03-20T22:46:12.818Z,60.30
2019-03-20T22:49:51.327Z,70.52
2019-03-20T22:53:14.218Z,63.53
2019-03-20T22:56:14.369Z,72.12
2019-03-20T22:59:01.860Z,65.73
2019-03-20T23:02:03.266Z,68.83
2019-03-20T23:04:51.840Z,67.87
2019-03-20T23:07:36.064Z,82.00
2019-03-20T23:10:20.197Z,70.33
2019-03-20T23:13:00.699Z,70.17
2019-03-20T23:15:53.719Z,74.32
2019-03-20T23:18:41.427Z,86.33
2019-03-20T23:21:28.334Z,70.83
2019-03-20T23:24:10.438Z,78.30
2019-03-20T23:26:59.939Z,63.33
2019-03-20T23:29:47.093Z,76.23
2019-03-20T23:32:28.425Z,68.50
2019-03-20T23:35:07.863Z,70.27
2019-03-20T23:37:48.878Z,65.33
2019-03-20T23:40:31.698Z,77.43
2019-03-20T23:43:14.047Z,68.43
2019-03-20T23:45:57.890Z,58.57
2019-03-20T23:48:55.761Z,78.40
2019-03-20T23:51:42.590Z,73.23
2019-03-20T23:54:34.437Z,64.03
2019-03-20T23:57:25.398Z,84.00
